createdAt,value
2018-09-15T00:01:36.461Z,5.10
2018-09-15T00:04:03.685Z,4.97
2018-09-15T00:06:30.883Z,5.20
2018-09-15T00:08:58.086Z,4.70
2018-09-15T00:11:25.302Z,4.93
2018-09-15T00:13:52.526Z,4.63
2018-09-15T00:16:19.780Z,5.00
2018-09-15T00:18:46.997Z,5.40
2018-09-15T00:21:14.312Z,4.83
2018-09-15T00:23:41.623Z,4.90
2018-09-15T00:26:08.855Z,4.80
2018-09-15T00:28:36.038Z,6.03
2018-09-15T00:31:03.233Z,5.03
2018-09-15T00:33:30.522Z,4.57
2018-09-15T00:35:57.730Z,4.87
2018-09-15T00:38:24.942Z,5.10
2018-09-15T00:40:52.176Z,4.67
2018-09-15T00:43:19.419Z,4.90
2018-09-15T00:45:46.643Z,4.67
2018-09-15T00:48:13.853Z,4.47
2018-09-15T00:50:41.197Z,4.37
2018-09-15T00:53:08.463Z,4.50
2018-09-15T00:55:35.825Z,5.00
2018-09-15T00:58:03.036Z,4.60
2018-09-15T01:00:30.305Z,4.67
2018-09-15T01:02:57.611Z,4.03
2018-09-15T01:05:25.005Z,4.40
2018-09-15T01:07:52.226Z,4.60
2018-09-15T01:10:19.489Z,4.70
2018-09-15T01:12:46.985Z,4.30
2018-09-15T01:15:14.195Z,4.07
2018-09-15T01:17:41.408Z,4.10
2018-09-15T01:20:08.644Z,4.40
2018-09-15T01:22:35.770Z,4.67
2018-09-15T01:25:02.977Z,4.20
2018-09-15T01:27:30.199Z,4.73
2018-09-15T01:29:57.454Z,4.20
2018-09-15T01:32:26.337Z,3.80
2018-09-15T01:34:53.574Z,4.13
2018-09-15T01:37:20.739Z,4.30
2018-09-15T01:39:47.937Z,4.17
2018-09-15T01:42:15.123Z,4.07
2018-09-15T01:44:42.340Z,4.23
2018-09-15T01:47:09.499Z,4.07
2018-09-15T01:49:36.733Z,3.90
2018-09-15T01:52:04.099Z,4.10
2018-09-15T01:54:31.295Z,4.33
2018-09-15T01:56:58.490Z,4.23
2018-09-15T01:59:25.769Z,4.57
2018-09-15T02:01:52.933Z,4.37
2018-09-15T02:04:20.138Z,5.40
2018-09-15T02:06:47.495Z,5.13
2018-09-15T02:09:14.929Z,4.47
2018-09-15T02:11:43.041Z,5.20
2018-09-15T02:14:10.476Z,4.73
2018-09-15T02:16:37.732Z,5.57
2018-09-15T02:19:04.974Z,5.20
2018-09-15T02:21:32.186Z,5.33
2018-09-15T02:23:59.387Z,5.50
2018-09-15T02:26:27.035Z,6.00
2018-09-15T02:28:54.352Z,5.27
2018-09-15T02:31:21.773Z,4.60
2018-09-15T02:33:49.197Z,5.10
2018-09-15T02:36:16.717Z,5.00
2018-09-15T02:38:44.426Z,5.00
2018-09-15T02:41:11.663Z,4.80
2018-09-15T02:43:39.036Z,5.03
2018-09-15T02:46:06.260Z,4.83
2018-09-15T02:48:33.457Z,4.90
2018-09-15T02:51:00.818Z,4.30
2018-09-15T02:53:28.076Z,4.93
2018-09-15T02:55:55.238Z,4.90
2018-09-15T02:58:22.458Z,5.57
2018-09-15T03:00:49.635Z,5.37
2018-09-15T03:03:16.826Z,4.50
2018-09-15T03:05:44.185Z,4.43
2018-09-15T03:08:11.419Z,4.53
2018-09-15T03:10:38.636Z,5.00
2018-09-15T03:13:05.841Z,4.10
2018-09-15T03:15:33.239Z,4.40
2018-09-15T03:18:00.431Z,4.20
2018-09-15T03:20:27.649Z,4.10
2018-09-15T03:22:55.022Z,4.70
2018-09-15T03:25:22.239Z,5.57
2018-09-15T03:27:49.594Z,4.63
2018-09-15T03:30:17.260Z,4.40
2018-09-15T03:32:44.482Z,4.10
2018-09-15T03:35:11.789Z,3.50
2018-09-15T03:37:39.129Z,4.00
2018-09-15T03:40:06.712Z,4.50
2018-09-15T03:42:34.242Z,4.90
2018-09-15T03:45:01.475Z,3.70
2018-09-15T03:47:28.651Z,4.10
2018-09-15T03:49:56.127Z,3.90
2018-09-15T03:52:23.426Z,3.80
2018-09-15T03:54:50.704Z,3.73
2018-09-15T03:57:17.924Z,4.30
2018-09-15T03:59:45.223Z,3.40
2018-09-15T04:02:12.401Z,3.63
2018-09-15T04:04:39.590Z,3.87
2018-09-15T04:07:06.802Z,4.10
2018-09-15T04:09:34.066Z,3.83
2018-09-15T04:12:01.403Z,4.23
2018-09-15T04:14:28.591Z,3.50
2018-09-15T04:16:55.787Z,3.70
2018-09-15T04:19:23.206Z,4.00
2018-09-15T04:21:50.608Z,3.93
2018-09-15T04:24:17.811Z,4.03
2018-09-15T04:26:45.050Z,4.07
2018-09-15T04:29:12.214Z,4.27
2018-09-15T04:31:39.422Z,4.97
2018-09-15T04:34:06.983Z,4.53
2018-09-15T04:36:34.181Z,4.87
2018-09-15T04:39:01.568Z,5.10
2018-09-15T04:41:28.859Z,4.73
2018-09-15T04:43:56.070Z,7.30
2018-09-15T04:46:23.319Z,7.10
2018-09-15T04:48:50.583Z,4.50
2018-09-15T04:51:17.780Z,4.20
2018-09-15T04:53:45.010Z,3.93
2018-09-15T04:56:12.499Z,4.30
2018-09-15T04:58:39.864Z,4.00
2018-09-15T05:01:07.022Z,4.70
2018-09-15T05:03:34.515Z,4.60
2018-09-15T05:06:01.778Z,4.53
2018-09-15T05:08:29.253Z,5.30
2018-09-15T05:10:56.690Z,4.60
2018-09-15T05:13:24.797Z,5.10
2018-09-15T05:15:51.999Z,4.97
2018-09-15T05:18:19.391Z,5.23
2018-09-15T05:20:46.841Z,5.30
2018-09-15T05:23:14.049Z,4.90
2018-09-15T05:25:41.270Z,5.53
2018-09-15T05:28:08.518Z,5.23
2018-09-15T05:30:35.736Z,5.73
2018-09-15T05:33:02.982Z,5.90
2018-09-15T05:35:30.297Z,5.80
2018-09-15T05:37:57.505Z,5.80
2018-09-15T05:40:24.718Z,4.90
2018-09-15T05:42:51.907Z,5.10
2018-09-15T05:45:19.271Z,5.33
2018-09-15T05:47:46.542Z,4.90
2018-09-15T05:50:13.796Z,6.10
2018-09-15T05:52:40.989Z,5.10
2018-09-15T05:55:08.198Z,5.90
2018-09-15T05:57:35.391Z,5.30
2018-09-15T06:00:02.707Z,5.17
2018-09-15T06:02:29.889Z,6.30
2018-09-15T06:04:57.327Z,5.53
2018-09-15T06:07:24.842Z,5.97
2018-09-15T06:09:52.113Z,6.13
2018-09-15T06:12:19.333Z,6.07
2018-09-15T06:14:46.604Z,5.80
2018-09-15T06:17:13.858Z,7.07
2018-09-15T06:19:41.231Z,6.10
2018-09-15T06:22:08.409Z,5.80
2018-09-15T06:24:35.624Z,6.53
2018-09-15T06:27:02.786Z,6.70
2018-09-15T06:29:30.093Z,6.40
2018-09-15T06:31:57.371Z,7.03
2018-09-15T06:34:24.610Z,7.40
2018-09-15T06:36:52.194Z,7.20
2018-09-15T06:39:19.440Z,7.30
2018-09-15T06:41:46.639Z,7.10
2018-09-15T06:44:13.918Z,7.07
2018-09-15T06:46:41.122Z,7.40
2018-09-15T06:49:08.325Z,8.10
2018-09-15T06:51:35.961Z,7.17
2018-09-15T06:54:03.396Z,7.10
2018-09-15T06:56:30.682Z,7.20
2018-09-15T06:58:58.092Z,7.70
2018-09-15T07:01:25.383Z,7.40
2018-09-15T07:03:52.643Z,7.20
2018-09-15T07:06:21.768Z,7.90
2018-09-15T07:08:50.152Z,7.50
2018-09-15T07:11:17.936Z,7.03
2018-09-15T07:13:45.334Z,7.40
2018-09-15T07:16:12.854Z,7.80
2018-09-15T07:18:40.179Z,7.20
2018-09-15T07:21:07.443Z,7.20
2018-09-15T07:23:35.015Z,8.87
2018-09-15T07:26:02.344Z,7.17
2018-09-15T07:28:29.793Z,7.80
2018-09-15T07:30:57.010Z,7.87
2018-09-15T07:33:24.344Z,7.10
2018-09-15T07:35:51.595Z,8.07
2018-09-15T07:38:18.796Z,8.57
2018-09-15T07:40:46.765Z,7.70
2018-09-15T07:43:14.248Z,9.37
2018-09-15T07:45:41.446Z,8.37
2018-09-15T07:48:08.748Z,7.83
2018-09-15T07:50:36.067Z,8.17
2018-09-15T07:53:03.349Z,8.00
2018-09-15T07:55:30.554Z,8.10
2018-09-15T07:57:58.368Z,8.70
2018-09-15T08:00:25.773Z,7.60
2018-09-15T08:02:53.114Z,7.50
2018-09-15T08:05:20.370Z,8.80
2018-09-15T08:07:47.824Z,8.30
2018-09-15T08:10:15.163Z,7.20
2018-09-15T08:12:42.641Z,6.70
2018-09-15T08:15:09.825Z,6.10
2018-09-15T08:17:37.062Z,6.90
2018-09-15T08:20:04.367Z,6.37
2018-09-15T08:22:31.667Z,6.00
2018-09-15T08:24:59.203Z,5.90
2018-09-15T08:27:26.432Z,6.03
2018-09-15T08:29:54.033Z,6.43
2018-09-15T08:32:21.497Z,7.27
2018-09-15T08:34:49.011Z,5.77
2018-09-15T08:37:16.944Z,5.00
2018-09-15T08:39:44.245Z,5.50
2018-09-15T08:42:11.462Z,5.13
2018-09-15T08:44:38.682Z,5.17
2018-09-15T08:47:05.961Z,5.43
2018-09-15T08:49:33.281Z,5.87
2018-09-15T08:52:00.852Z,4.73
2018-09-15T08:54:28.817Z,4.80
2018-09-15T08:56:56.167Z,5.10
2018-09-15T08:59:23.427Z,4.13
2018-09-15T09:01:50.635Z,4.07
2018-09-15T09:04:17.836Z,4.77
2018-09-15T09:06:45.159Z,4.00
2018-09-15T09:09:13.115Z,3.60
2018-09-15T09:11:40.301Z,2.77
2018-09-15T09:14:07.507Z,2.73
2018-09-15T09:16:34.835Z,2.13
2018-09-15T09:19:02.057Z,2.00
2018-09-15T09:21:29.473Z,1.93
2018-09-15T09:23:56.832Z,2.10
2018-09-15T09:26:24.416Z,2.23
2018-09-15T09:28:51.609Z,1.60
2018-09-15T09:31:19.015Z,1.20
2018-09-15T09:33:46.418Z,1.83
2018-09-15T09:36:13.882Z,1.40
2018-09-15T09:38:41.104Z,1.80
2018-09-15T09:41:08.324Z,2.17
2018-09-15T09:43:35.510Z,1.47
2018-09-15T09:46:02.751Z,1.90
2018-09-15T09:48:30.156Z,2.23
2018-09-15T09:50:57.364Z,1.60
2018-09-15T09:53:24.645Z,2.27
2018-09-15T09:55:51.859Z,2.60
2018-09-15T09:58:19.183Z,2.00
2018-09-15T10:00:51.687Z,2.13
2018-09-15T10:03:19.032Z,1.57
2018-09-15T10:05:46.379Z,1.67
2018-09-15T10:08:13.665Z,1.73
2018-09-15T10:10:40.922Z,1.80
2018-09-15T10:13:08.277Z,2.03
2018-09-15T10:15:35.530Z,2.60
2018-09-15T10:18:02.826Z,1.80
2018-09-15T10:20:30.028Z,1.80
2018-09-15T10:22:57.401Z,1.30
2018-09-15T10:25:24.643Z,4.03
2018-09-15T10:27:52.147Z,2.30
2018-09-15T10:30:19.817Z,1.87
2018-09-15T10:32:47.226Z,1.30
2018-09-15T10:35:14.475Z,1.80
2018-09-15T10:37:41.645Z,2.20
2018-09-15T10:40:08.992Z,1.73
2018-09-15T10:42:36.208Z,1.60
2018-09-15T10:45:03.593Z,1.33
2018-09-15T10:47:30.964Z,1.93
2018-09-15T10:49:59.371Z,1.50
2018-09-15T10:52:26.622Z,2.10
2018-09-15T10:54:53.964Z,1.27
2018-09-15T10:57:21.144Z,1.80
2018-09-15T10:59:48.398Z,1.77
2018-09-15T11:02:15.726Z,1.60
2018-09-15T11:04:45.171Z,1.23
2018-09-15T11:07:12.585Z,1.30
2018-09-15T11:09:40.096Z,1.27
2018-09-15T11:12:07.550Z,1.27
2018-09-15T11:14:34.811Z,1.60
2018-09-15T11:17:02.097Z,1.10
2018-09-15T11:19:29.518Z,1.50
2018-09-15T11:21:56.826Z,1.10
2018-09-15T11:24:24.161Z,1.10
2018-09-15T11:26:51.891Z,1.40
2018-09-15T11:29:19.089Z,1.20
2018-09-15T11:31:46.350Z,1.60
2018-09-15T11:34:14.161Z,1.57
2018-09-15T11:36:41.339Z,0.93
2018-09-15T11:39:09.883Z,1.17
2018-09-15T11:41:37.362Z,0.80
2018-09-15T11:44:04.959Z,1.00
2018-09-15T11:46:32.265Z,1.20
2018-09-15T11:48:59.714Z,1.23
2018-09-15T11:51:27.074Z,1.23
2018-09-15T11:53:54.447Z,1.30
2018-09-15T11:56:21.719Z,0.80
2018-09-15T11:58:48.982Z,0.80
2018-09-15T12:01:17.310Z,1.00
2018-09-15T12:03:44.591Z,1.00
2018-09-15T12:06:12.024Z,0.90
2018-09-15T12:08:39.353Z,1.13
2018-09-15T12:11:06.617Z,0.90
2018-09-15T12:13:34.394Z,0.80
2018-09-15T12:16:01.700Z,1.10
2018-09-15T12:18:29.069Z,0.70
2018-09-15T12:20:56.591Z,0.70
2018-09-15T12:23:23.905Z,0.80
2018-09-15T12:25:51.352Z,1.30
2018-09-15T12:28:18.751Z,1.20
2018-09-15T12:30:46.017Z,1.53
2018-09-15T12:33:13.305Z,1.00
2018-09-15T12:35:40.587Z,1.00
2018-09-15T12:38:08.373Z,1.57
2018-09-15T12:40:36.210Z,1.43
2018-09-15T12:43:03.631Z,1.20
2018-09-15T12:45:30.953Z,1.17
2018-09-15T12:47:58.152Z,1.00
2018-09-15T12:50:25.567Z,0.87
2018-09-15T12:52:52.777Z,1.10
2018-09-15T12:55:20.132Z,0.90
2018-09-15T12:57:47.535Z,0.87
2018-09-15T13:00:15.227Z,1.00
2018-09-15T13:02:42.994Z,0.83
2018-09-15T13:05:10.243Z,0.70
2018-09-15T13:07:37.434Z,1.03
2018-09-15T13:10:04.789Z,1.00
2018-09-15T13:12:32.060Z,0.73
2018-09-15T13:14:59.390Z,1.80
2018-09-15T13:17:26.666Z,1.10
2018-09-15T13:19:53.986Z,1.20
2018-09-15T13:22:21.458Z,1.10
2018-09-15T13:24:48.664Z,1.37
2018-09-15T13:27:16.359Z,1.13
2018-09-15T13:29:43.654Z,1.10
2018-09-15T13:32:10.991Z,1.67
2018-09-15T13:34:38.281Z,1.00
2018-09-15T13:37:05.718Z,0.97
2018-09-15T13:39:33.014Z,1.00
2018-09-15T13:42:00.280Z,0.90
2018-09-15T13:44:27.623Z,0.90
2018-09-15T13:46:54.844Z,1.07
2018-09-15T13:49:22.319Z,1.00
2018-09-15T13:51:49.672Z,1.17
2018-09-15T13:54:16.958Z,1.10
2018-09-15T13:56:44.221Z,1.20
2018-09-15T13:59:11.574Z,0.80
2018-09-15T14:01:38.840Z,1.80
2018-09-15T14:04:06.107Z,1.50
2018-09-15T14:06:33.525Z,0.90
2018-09-15T14:09:00.981Z,0.83
2018-09-15T14:11:28.140Z,0.80
2018-09-15T14:13:55.393Z,0.90
2018-09-15T14:16:22.811Z,1.17
2018-09-15T14:18:49.953Z,0.90
2018-09-15T14:21:17.244Z,1.00
2018-09-15T14:23:44.473Z,1.10
2018-09-15T14:26:11.922Z,0.93
2018-09-15T14:28:39.257Z,0.80
2018-09-15T14:31:06.592Z,0.90
2018-09-15T14:33:33.801Z,1.07
2018-09-15T14:36:01.030Z,1.10
2018-09-15T14:38:28.296Z,1.00
2018-09-15T14:40:55.523Z,1.07
2018-09-15T14:43:22.768Z,1.17
2018-09-15T14:45:49.977Z,0.97
2018-09-15T14:48:17.292Z,0.97
2018-09-15T14:50:44.512Z,1.03
2018-09-15T14:53:11.845Z,1.00
2018-09-15T14:55:39.085Z,0.80
2018-09-15T14:58:06.641Z,1.10
2018-09-15T15:00:33.913Z,1.10
2018-09-15T15:03:06.347Z,1.10
2018-09-15T15:05:33.626Z,1.00
2018-09-15T15:08:00.858Z,0.87
2018-09-15T15:10:28.166Z,0.87
2018-09-15T15:12:55.450Z,1.00
2018-09-15T15:15:22.888Z,1.10
2018-09-15T15:17:49.954Z,0.90
2018-09-15T15:20:17.215Z,0.90
2018-09-15T15:22:44.427Z,1.00
2018-09-15T15:25:11.631Z,1.17
2018-09-15T15:27:38.843Z,0.90
2018-09-15T15:30:06.322Z,0.93
2018-09-15T15:32:33.914Z,1.33
2018-09-15T15:35:01.226Z,0.90
2018-09-15T15:37:28.744Z,1.40
2018-09-15T15:39:55.973Z,1.13
2018-09-15T15:42:23.484Z,0.83
2018-09-15T15:44:50.764Z,1.00
2018-09-15T15:47:18.455Z,1.10
2018-09-15T15:49:46.040Z,1.10
2018-09-15T15:52:13.326Z,1.07
2018-09-15T15:54:40.554Z,1.20
2018-09-15T15:57:07.811Z,1.00
2018-09-15T15:59:35.208Z,1.00
2018-09-15T16:02:02.447Z,0.90
2018-09-15T16:04:29.956Z,0.90
2018-09-15T16:06:57.247Z,0.80
2018-09-15T16:09:24.872Z,0.87
2018-09-15T16:11:52.123Z,0.87
2018-09-15T16:14:19.365Z,0.80
2018-09-15T16:16:46.709Z,1.10
2018-09-15T16:19:14.161Z,1.30
2018-09-15T16:21:41.362Z,1.57
2018-09-15T16:24:08.969Z,0.80
2018-09-15T16:26:36.486Z,1.00
2018-09-15T16:29:04.261Z,0.90
2018-09-15T16:31:31.505Z,1.20
2018-09-15T16:33:58.794Z,1.30
2018-09-15T16:36:26.292Z,1.13
2018-09-15T16:38:53.526Z,1.00
2018-09-15T16:41:20.746Z,1.10
2018-09-15T16:43:48.154Z,1.10
2018-09-15T16:46:15.508Z,1.00
2018-09-15T16:48:43.023Z,1.20
2018-09-15T16:51:10.451Z,1.30
2018-09-15T16:53:37.759Z,0.93
2018-09-15T16:56:05.036Z,1.30
2018-09-15T16:58:32.324Z,1.50
2018-09-15T17:00:59.631Z,1.23
2018-09-15T17:03:26.919Z,1.10
2018-09-15T17:05:54.139Z,1.60
2018-09-15T17:08:21.626Z,1.23
2018-09-15T17:11:53.064Z,1.80
2018-09-15T17:14:20.284Z,1.60
2018-09-15T17:16:47.689Z,1.33
2018-09-15T17:19:14.976Z,1.50
2018-09-15T17:21:42.325Z,1.30
2018-09-15T17:24:09.839Z,1.50
2018-09-15T17:26:37.087Z,2.23
2018-09-15T17:29:04.522Z,1.30
2018-09-15T17:31:31.752Z,1.37
2018-09-15T17:33:59.105Z,1.53
2018-09-15T17:36:26.350Z,1.53
2018-09-15T17:38:53.547Z,1.83
2018-09-15T17:41:21.227Z,1.70
2018-09-15T17:43:48.580Z,2.00
2018-09-15T17:46:15.828Z,1.80
2018-09-15T17:48:43.083Z,2.27
2018-09-15T17:51:10.525Z,2.60
2018-09-15T17:53:37.840Z,2.50
2018-09-15T17:56:05.076Z,2.83
2018-09-15T17:58:32.293Z,2.40
2018-09-15T18:00:59.499Z,2.10
2018-09-15T18:03:26.914Z,2.03
2018-09-15T18:05:54.219Z,2.27
2018-09-15T18:08:21.762Z,1.80
2018-09-15T18:10:49.035Z,1.70
2018-09-15T18:13:16.664Z,3.33
2018-09-15T18:15:43.947Z,2.40
2018-09-15T18:18:11.233Z,2.50
2018-09-15T18:20:38.466Z,2.47
2018-09-15T18:23:06.532Z,2.67
2018-09-15T18:25:33.981Z,2.13
2018-09-15T18:28:03.097Z,2.23
2018-09-15T18:30:30.879Z,3.23
2018-09-15T18:32:58.564Z,3.03
2018-09-15T18:35:26.044Z,2.87
2018-09-15T18:37:53.345Z,3.23
2018-09-15T18:40:20.574Z,3.03
2018-09-15T18:42:47.894Z,3.10
2018-09-15T18:45:15.411Z,2.23
2018-09-15T18:47:42.659Z,2.00
2018-09-15T18:50:09.894Z,2.10
2018-09-15T18:52:37.180Z,2.33
2018-09-15T18:55:04.658Z,2.43
2018-09-15T18:57:31.985Z,2.40
2018-09-15T18:59:59.352Z,3.03
2018-09-15T19:02:26.565Z,3.23
2018-09-15T19:04:53.943Z,3.70
2018-09-15T19:07:21.228Z,3.17
2018-09-15T19:09:48.485Z,2.43
2018-09-15T19:12:15.708Z,2.17
2018-09-15T19:14:42.991Z,2.33
2018-09-15T19:17:10.190Z,2.20
2018-09-15T19:19:37.700Z,1.87
2018-09-15T19:22:05.151Z,2.27
2018-09-15T19:24:32.422Z,2.57
2018-09-15T19:26:59.722Z,3.30
2018-09-15T19:29:27.289Z,2.90
2018-09-15T19:31:56.065Z,2.30
2018-09-15T19:34:23.384Z,2.23
2018-09-15T19:36:50.778Z,2.30
2018-09-15T19:39:18.272Z,2.10
2018-09-15T19:41:45.478Z,2.50
2018-09-15T19:44:12.933Z,2.00
2018-09-15T19:46:40.318Z,3.20
2018-09-15T19:49:08.255Z,3.00
2018-09-15T19:51:35.474Z,2.47
2018-09-15T19:54:02.689Z,2.53
2018-09-15T19:56:30.141Z,2.50
2018-09-15T19:58:57.474Z,2.07
2018-09-15T20:01:25.237Z,3.03
2018-09-15T20:03:52.446Z,2.50
2018-09-15T20:06:19.790Z,2.40
2018-09-15T20:08:47.112Z,2.20
2018-09-15T20:11:14.413Z,2.93
2018-09-15T20:13:41.624Z,3.63
2018-09-15T20:16:08.279Z,2.53
2018-09-15T20:18:35.110Z,4.30
2018-09-15T20:21:01.748Z,4.17
2018-09-15T20:23:29.024Z,3.80
2018-09-15T20:25:56.271Z,3.67
2018-09-15T20:28:23.803Z,4.07
2018-09-15T20:30:51.120Z,3.90
2018-09-15T20:33:18.337Z,4.70
2018-09-15T20:35:45.556Z,4.60
2018-09-15T20:38:12.806Z,4.80
2018-09-15T20:40:40.105Z,4.80
2018-09-15T20:43:07.363Z,4.10
2018-09-15T20:45:34.666Z,4.90
2018-09-15T20:48:32.820Z,4.30
2018-09-15T20:51:00.240Z,3.80
2018-09-15T20:53:27.589Z,3.70
2018-09-15T20:55:54.809Z,4.33
2018-09-15T20:58:22.263Z,4.13
2018-09-15T21:00:49.736Z,3.70
2018-09-15T21:03:16.985Z,3.90
2018-09-15T21:05:45.014Z,3.13
2018-09-15T21:08:12.301Z,3.40
2018-09-15T21:10:39.500Z,2.90
2018-09-15T21:13:06.731Z,3.80
2018-09-15T21:15:34.022Z,3.33
2018-09-15T21:18:01.446Z,3.23
2018-09-15T21:20:28.899Z,4.10
2018-09-15T21:22:56.348Z,3.57
2018-09-15T21:25:24.722Z,3.83
2018-09-15T21:27:52.109Z,4.03
2018-09-15T21:30:19.330Z,4.00
2018-09-15T21:32:46.626Z,4.20
2018-09-15T21:35:13.973Z,3.77
2018-09-15T21:37:41.227Z,3.90
2018-09-15T21:40:08.495Z,4.17
2018-09-15T21:42:35.749Z,4.27
2018-09-15T21:45:03.940Z,4.67
2018-09-15T21:47:32.498Z,4.93
2018-09-15T21:49:59.922Z,4.33
2018-09-15T21:52:27.311Z,5.10
2018-09-15T21:54:54.638Z,4.20
2018-09-15T21:57:21.850Z,4.07
2018-09-15T21:59:49.327Z,3.60
2018-09-15T22:02:16.786Z,4.07
2018-09-15T22:04:44.169Z,3.50
2018-09-15T22:07:11.452Z,3.87
2018-09-15T22:09:38.918Z,3.83
2018-09-15T22:12:06.120Z,3.70
2018-09-15T22:14:33.341Z,3.33
2018-09-15T22:17:00.745Z,3.30
2018-09-15T22:19:27.973Z,3.03
2018-09-15T22:21:55.257Z,3.60
2018-09-15T22:24:22.434Z,3.57
2018-09-15T22:26:50.050Z,3.37
2018-09-15T22:29:17.334Z,3.03
2018-09-15T22:31:45.180Z,3.87
2018-09-15T22:34:12.439Z,4.13
2018-09-15T22:36:39.801Z,3.40
2018-09-15T22:39:07.715Z,3.80
2018-09-15T22:41:35.134Z,3.33
2018-09-15T22:44:02.566Z,3.67
2018-09-15T22:46:29.866Z,2.97
2018-09-15T22:48:57.101Z,3.50
2018-09-15T22:51:24.546Z,4.20
2018-09-15T22:53:51.742Z,4.13
2018-09-15T22:56:18.969Z,3.70
2018-09-15T22:58:46.271Z,3.80
2018-09-15T23:01:13.500Z,3.43
2018-09-15T23:03:40.723Z,3.53
2018-09-15T23:06:07.932Z,3.60
2018-09-15T23:08:35.297Z,3.13
2018-09-15T23:11:02.494Z,3.93
2018-09-15T23:13:30.017Z,3.50
2018-09-15T23:15:57.454Z,2.77
2018-09-15T23:18:24.723Z,3.07
2018-09-15T23:20:51.903Z,2.50
2018-09-15T23:23:19.326Z,3.40
2018-09-15T23:25:46.584Z,3.00
2018-09-15T23:28:13.966Z,3.07
2018-09-15T23:30:41.390Z,2.93
2018-09-15T23:33:08.676Z,2.73
2018-09-15T23:35:35.829Z,3.40
2018-09-15T23:38:03.148Z,2.97
2018-09-15T23:40:30.431Z,3.50
2018-09-15T23:42:57.782Z,2.63
2018-09-15T23:45:24.968Z,2.50
2018-09-15T23:47:52.537Z,3.30
2018-09-15T23:50:19.773Z,2.20
2018-09-15T23:52:47.299Z,2.63
2018-09-15T23:55:14.490Z,3.13
2018-09-15T23:57:41.894Z,3.23
